createdAt,value
2023-03-16T00:02:21.692Z,7.13
2023-03-16T00:07:43.166Z,8.68
2023-03-16T00:13:04.198Z,7.80
2023-03-16T00:18:29.511Z,7.10
2023-03-16T00:23:50.834Z,7.60
2023-03-16T00:29:12.105Z,5.95
2023-03-16T00:34:34.829Z,5.43
2023-03-16T00:39:56.415Z,6.40
2023-03-16T00:45:17.716Z,6.85
2023-03-16T00:50:39.008Z,5.47
2023-03-16T00:56:04.462Z,4.15
2023-03-16T01:01:27.443Z,5.40
2023-03-16T01:06:49.235Z,6.43
2023-03-16T01:12:15.018Z,5.75
2023-03-16T01:17:36.371Z,6.10
2023-03-16T01:22:57.382Z,5.68
2023-03-16T01:28:19.630Z,7.20
2023-03-16T01:33:41.286Z,3.80
2023-03-16T01:39:06.847Z,5.80
2023-03-16T01:45:01.746Z,5.57
2023-03-16T01:50:31.265Z,5.57
2023-03-16T01:55:55.354Z,4.35
2023-03-16T02:01:16.675Z,7.03
2023-03-16T02:06:38.121Z,4.95
2023-03-16T02:11:59.460Z,5.13
2023-03-16T02:17:32.635Z,5.25
2023-03-16T02:22:58.927Z,5.85
2023-03-16T02:28:33.074Z,7.38
2023-03-16T02:33:54.468Z,4.60
2023-03-16T02:39:15.691Z,7.80
2023-03-16T02:44:47.636Z,4.70
2023-03-16T02:50:10.625Z,7.00
2023-03-16T02:55:32.173Z,6.65
2023-03-16T03:00:53.808Z,5.28
2023-03-16T03:06:14.855Z,6.05
2023-03-16T03:11:36.283Z,5.47
2023-03-16T03:16:57.858Z,5.53
2023-03-16T03:22:18.992Z,6.25
2023-03-16T03:27:42.512Z,7.05
2023-03-16T03:33:06.314Z,6.88
2023-03-16T03:38:30.895Z,7.22
2023-03-16T03:43:52.379Z,4.75
2023-03-16T03:49:13.869Z,4.78
2023-03-16T03:54:35.260Z,6.93
2023-03-16T04:00:01.085Z,7.07
2023-03-16T04:05:42.656Z,5.97
2023-03-16T04:11:04.288Z,6.85
2023-03-16T04:16:27.079Z,4.50
2023-03-16T04:21:50.898Z,5.75
2023-03-16T04:27:13.642Z,4.72
2023-03-16T04:32:35.553Z,9.18
2023-03-16T04:37:57.032Z,4.72
2023-03-16T04:43:26.894Z,6.82
2023-03-16T04:48:53.710Z,8.68
2023-03-16T04:54:15.634Z,6.35
2023-03-16T04:59:38.651Z,7.22
2023-03-16T05:05:21.788Z,4.55
2023-03-16T05:10:44.749Z,5.53
2023-03-16T05:16:07.275Z,6.75
2023-03-16T05:21:35.625Z,7.53
2023-03-16T05:26:59.389Z,7.38
2023-03-16T05:32:21.282Z,7.55
2023-03-16T05:37:43.672Z,8.70
2023-03-16T05:43:09.736Z,9.63
2023-03-16T05:48:37.719Z,6.80
2023-03-16T06:00:18.336Z,6.82
2023-03-16T06:05:46.911Z,5.65
2023-03-16T06:11:12.138Z,11.57
2023-03-16T06:16:35.315Z,11.48
2023-03-16T06:21:57.346Z,9.95
2023-03-16T06:27:25.376Z,9.70
2023-03-16T06:33:02.387Z,9.65
2023-03-16T06:44:39.514Z,6.95
2023-03-16T06:50:04.658Z,13.48
2023-03-16T06:55:25.566Z,10.63
2023-03-16T07:00:46.495Z,8.98
2023-03-16T07:06:07.471Z,6.20
2023-03-16T07:11:28.194Z,8.45
2023-03-16T07:16:52.864Z,9.65
2023-03-16T07:22:15.053Z,6.93
2023-03-16T07:27:36.002Z,8.57
2023-03-16T07:33:00.236Z,7.28
2023-03-16T07:38:22.158Z,6.60
2023-03-16T07:43:44.593Z,5.82
2023-03-16T07:49:09.787Z,5.97
2023-03-16T07:54:32.652Z,5.38
2023-03-16T07:59:54.781Z,5.45
2023-03-16T08:05:16.193Z,5.30
2023-03-16T08:10:42.200Z,4.57
2023-03-16T08:16:13.458Z,5.47
2023-03-16T08:21:49.257Z,4.53
2023-03-16T08:27:28.160Z,5.90
2023-03-16T08:32:52.943Z,7.35
2023-03-16T08:38:14.244Z,5.60
2023-03-16T08:43:37.553Z,4.60
2023-03-16T08:48:58.954Z,4.80
2023-03-16T08:54:22.458Z,4.05
2023-03-16T08:59:44.958Z,4.35
2023-03-16T09:05:10.204Z,6.03
2023-03-16T09:10:33.267Z,4.78
2023-03-16T09:15:54.453Z,6.95
2023-03-16T09:21:15.990Z,7.10
2023-03-16T09:26:37.443Z,7.78
2023-03-16T09:31:58.696Z,5.00
2023-03-16T09:37:19.946Z,5.20
2023-03-16T09:42:45.078Z,5.35
2023-03-16T09:48:06.671Z,5.35
2023-03-16T09:53:29.800Z,4.63
2023-03-16T09:58:51.086Z,3.05
2023-03-16T10:04:28.807Z,3.95
2023-03-16T10:09:55.199Z,5.82
2023-03-16T10:15:27.118Z,3.25
2023-03-16T10:20:48.520Z,3.28
2023-03-16T10:26:18.933Z,3.92
2023-03-16T10:31:41.602Z,4.47
2023-03-16T10:37:03.013Z,2.45
2023-03-16T10:42:30.779Z,4.28
2023-03-16T10:48:34.191Z,3.67
2023-03-16T10:54:15.802Z,2.88
2023-03-16T10:59:38.202Z,4.82
2023-03-16T11:04:59.209Z,5.22
2023-03-16T11:10:29.844Z,4.00
2023-03-16T11:16:01.751Z,7.25
2023-03-16T11:21:25.808Z,5.43
2023-03-16T11:26:48.897Z,5.70
2023-03-16T11:32:16.266Z,6.65
2023-03-16T11:37:43.502Z,4.82
2023-03-16T11:43:31.567Z,2.85
2023-03-16T11:49:14.520Z,8.95
2023-03-16T11:54:54.332Z,5.10
2023-03-16T12:00:35.237Z,4.10
2023-03-16T12:06:23.363Z,5.95
2023-03-16T12:11:55.049Z,4.10
2023-03-16T12:17:23.259Z,6.32
2023-03-16T12:22:55.702Z,6.47
2023-03-16T12:28:21.965Z,4.93
2023-03-16T12:34:08.270Z,3.13
2023-03-16T12:39:47.935Z,6.88
2023-03-16T12:45:23.250Z,5.85
2023-03-16T12:50:49.219Z,4.93
2023-03-16T12:56:12.196Z,4.18
2023-03-16T13:01:42.495Z,6.03
2023-03-16T13:07:14.962Z,6.25
2023-03-16T13:12:38.181Z,5.05
2023-03-16T13:18:17.465Z,5.32
2023-03-16T13:23:58.445Z,6.57
2023-03-16T13:29:25.643Z,3.78
2023-03-16T13:34:51.112Z,3.78
2023-03-16T13:40:23.204Z,7.95
2023-03-16T13:45:44.267Z,5.68
2023-03-16T13:51:05.250Z,3.50
2023-03-16T13:56:28.859Z,5.05
2023-03-16T14:02:49.633Z,8.00
2023-03-16T14:08:27.743Z,5.78
2023-03-16T14:14:33.714Z,2.78
2023-03-16T14:20:23.076Z,4.10
2023-03-16T14:25:53.544Z,3.50
2023-03-16T14:31:19.522Z,5.20
2023-03-16T14:36:40.282Z,5.75
2023-03-16T14:42:05.213Z,6.60
2023-03-16T14:47:28.313Z,6.30
2023-03-16T14:52:50.660Z,8.07
2023-03-16T14:58:12.513Z,6.28
2023-03-16T15:03:35.282Z,5.65
2023-03-16T15:08:56.975Z,4.70
2023-03-16T15:14:38.378Z,5.75
2023-03-16T15:19:59.168Z,4.63
2023-03-16T15:25:36.452Z,5.80
2023-03-16T15:30:58.658Z,4.57
2023-03-16T15:36:20.458Z,6.60
2023-03-16T15:41:47.692Z,5.75
2023-03-16T15:47:09.281Z,4.30
2023-03-16T15:52:34.377Z,4.85
2023-03-16T15:57:58.802Z,5.45
2023-03-16T16:03:19.724Z,6.65
2023-03-16T16:08:42.027Z,5.65
2023-03-16T16:22:27.216Z,4.28
2023-03-16T16:27:55.923Z,4.10
2023-03-16T16:33:44.908Z,4.15
2023-03-16T16:39:08.124Z,5.43
2023-03-16T16:44:59.982Z,3.05
2023-03-16T16:50:49.131Z,5.07
2023-03-16T16:56:17.498Z,2.95
2023-03-16T17:01:39.107Z,4.18
2023-03-16T17:07:02.091Z,4.05
2023-03-16T17:12:23.292Z,6.95
2023-03-16T17:17:44.919Z,5.05
2023-03-16T17:23:18.605Z,7.05
2023-03-16T17:28:41.843Z,8.15
2023-03-16T17:34:04.079Z,11.32
2023-03-16T17:39:26.346Z,5.72
2023-03-16T17:44:51.130Z,7.40
2023-03-16T17:50:24.954Z,7.35
2023-03-16T17:56:14.887Z,9.93
2023-03-16T18:01:37.816Z,6.90
2023-03-16T18:06:59.145Z,5.70
2023-03-16T18:12:54.765Z,7.68
2023-03-16T18:18:27.722Z,8.10
2023-03-16T18:23:52.916Z,6.65
2023-03-16T18:29:15.068Z,6.25
2023-03-16T18:34:37.020Z,6.93
2023-03-16T18:39:58.210Z,8.32
2023-03-16T18:45:27.964Z,8.32
2023-03-16T18:51:19.148Z,7.57
2023-03-16T18:57:46.614Z,10.50
2023-03-16T19:03:13.948Z,8.57
2023-03-16T19:08:41.253Z,8.63
2023-03-16T21:02:29.795Z,10.90
2023-03-16T21:07:52.346Z,11.02
2023-03-16T21:13:35.342Z,12.57
2023-03-16T21:18:56.163Z,12.43
2023-03-16T21:24:36.055Z,13.98
2023-03-16T21:30:25.150Z,9.48
2023-03-16T21:35:58.752Z,11.65
2023-03-16T21:41:50.680Z,12.32
2023-03-16T21:47:23.655Z,12.07
2023-03-16T21:52:45.244Z,12.13
2023-03-16T21:58:06.162Z,10.98
2023-03-16T22:03:37.749Z,11.68
2023-03-16T22:16:40.970Z,12.95
2023-03-16T22:22:03.281Z,10.63
2023-03-16T22:27:26.380Z,11.43
2023-03-16T22:32:49.128Z,11.77
2023-03-16T22:38:16.577Z,12.73
2023-03-16T22:43:38.540Z,12.80
2023-03-16T22:48:59.621Z,15.55
2023-03-16T22:54:21.325Z,11.02
2023-03-16T22:59:42.574Z,12.73
2023-03-16T23:05:24.624Z,12.15
2023-03-16T23:10:46.174Z,13.43
2023-03-16T23:16:10.360Z,11.30
2023-03-16T23:21:31.914Z,12.73
2023-03-16T23:26:52.901Z,12.02
2023-03-16T23:32:43.811Z,16.00
2023-03-16T23:38:04.463Z,12.68
2023-03-16T23:43:25.216Z,12.43
2023-03-16T23:48:46.322Z,13.05
2023-03-16T23:54:19.110Z,11.25
2023-03-16T23:59:40.177Z,14.23
